sensor_id;sensor_type;location;lat;lon;timestamp;P1;durP1;ratioP1;P2;durP2;ratioP2
21084;SDS011;34247;50.064;19.970;2023-01-10T00:00:32;8.00;;;4.25;;
21084;SDS011;34247;50.064;19.970;2023-01-10T00:01:39;12.93;;;5.88;;
21084;SDS011;34247;50.064;19.970;2023-01-10T00:02:43;7.03;;;6.10;;
21084;SDS011;34247;50.064;19.970;2023-01-10T00:03:48;9.95;;;5.18;;
21084;SDS011;34247;50.064;19.970;2023-01-10T00:04:52;6.28;;;4.45;;
21084;SDS011;34247;50.064;19.970;2023-01-10T00:05:57;5.95;;;4.45;;
21084;SDS011;34247;50.064;19.970;2023-01-10T00:07:01;7.30;;;5.15;;
21084;SDS011;34247;50.064;19.970;2023-01-10T00:08:09;11.43;;;5.82;;
21084;SDS011;34247;50.064;19.970;2023-01-10T00:09:19;8.75;;;5.05;;
21084;SDS011;34247;50.064;19.970;2023-01-10T00:10:24;6.15;;;5.43;;
21084;SDS011;34247;50.064;19.970;2023-01-10T00:11:28;11.15;;;4.45;;
21084;SDS011;34247;50.064;19.970;2023-01-10T00:12:54;6.10;;;4.35;;
21084;SDS011;34247;50.064;19.970;2023-01-10T00:14:16;6.22;;;3.40;;
21084;SDS011;34247;50.064;19.970;2023-01-10T00:15:21;12.60;;;4.57;;
21084;SDS011;34247;50.064;19.970;2023-01-10T00:16:25;13.48;;;5.32;;
21084;SDS011;34247;50.064;19.970;2023-01-10T00:17:29;7.97;;;5.57;;
21084;SDS011;34247;50.064;19.970;2023-01-10T00:18:33;6.28;;;5.15;;
21084;SDS011;34247;50.064;19.970;2023-01-10T00:19:41;9.95;;;5.15;;
21084;SDS011;34247;50.064;19.970;2023-01-10T00:20:47;8.48;;;5.75;;
21084;SDS011;34247;50.064;19.970;2023-01-10T00:21:51;8.25;;;5.90;;
21084;SDS011;34247;50.064;19.970;2023-01-10T00:22:56;12.90;;;4.93;;
21084;SDS011;34247;50.064;19.970;2023-01-10T00:24:00;6.25;;;4.57;;
21084;SDS011;34247;50.064;19.970;2023-01-10T00:25:23;13.15;;;5.88;;
21084;SDS011;34247;50.064;19.970;2023-01-10T00:26:27;17.63;;;4.80;;
21084;SDS011;34247;50.064;19.970;2023-01-10T00:27:31;5.15;;;4.28;;
21084;SDS011;34247;50.064;19.970;2023-01-10T00:28:37;12.57;;;5.05;;
21084;SDS011;34247;50.064;19.970;2023-01-10T00:29:41;8.00;;;5.05;;
21084;SDS011;34247;50.064;19.970;2023-01-10T00:30:48;6.07;;;4.20;;
21084;SDS011;34247;50.064;19.970;2023-01-10T00:32:04;6.25;;;4.68;;
21084;SDS011;34247;50.064;19.970;2023-01-10T00:33:07;10.10;;;5.38;;
21084;SDS011;34247;50.064;19.970;2023-01-10T00:34:19;5.70;;;4.45;;
21084;SDS011;34247;50.064;19.970;2023-01-10T00:35:23;12.32;;;5.72;;
21084;SDS011;34247;50.064;19.970;2023-01-10T00:36:28;7.97;;;4.82;;
21084;SDS011;34247;50.064;19.970;2023-01-10T00:37:32;11.57;;;4.75;;
21084;SDS011;34247;50.064;19.970;2023-01-10T00:38:37;7.05;;;3.72;;
21084;SDS011;34247;50.064;19.970;2023-01-10T00:39:41;11.43;;;5.85;;
21084;SDS011;34247;50.064;19.970;2023-01-10T00:40:45;8.63;;;4.70;;
21084;SDS011;34247;50.064;19.970;2023-01-10T00:41:50;28.05;;;6.05;;
21084;SDS011;34247;50.064;19.970;2023-01-10T00:43:14;10.55;;;4.80;;
21084;SDS011;34247;50.064;19.970;2023-01-10T00:44:37;8.38;;;5.25;;
21084;SDS011;34247;50.064;19.970;2023-01-10T00:45:43;5.93;;;4.00;;
21084;SDS011;34247;50.064;19.970;2023-01-10T00:46:49;7.47;;;4.65;;
21084;SDS011;34247;50.064;19.970;2023-01-10T00:47:54;7.10;;;5.15;;
21084;SDS011;34247;50.064;19.970;2023-01-10T00:48:59;5.88;;;4.05;;
21084;SDS011;34247;50.064;19.970;2023-01-10T00:50:03;9.13;;;6.47;;
21084;SDS011;34247;50.064;19.970;2023-01-10T00:51:08;11.73;;;5.63;;
21084;SDS011;34247;50.064;19.970;2023-01-10T00:52:12;10.18;;;4.32;;
21084;SDS011;34247;50.064;19.970;2023-01-10T00:53:16;7.28;;;4.50;;
21084;SDS011;34247;50.064;19.970;2023-01-10T00:54:20;7.80;;;4.90;;
21084;SDS011;34247;50.064;19.970;2023-01-10T00:55:24;11.68;;;3.97;;
21084;SDS011;34247;50.064;19.970;2023-01-10T00:56:29;8.60;;;4.60;;
21084;SDS011;34247;50.064;19.970;2023-01-10T00:57:32;8.68;;;4.95;;
21084;SDS011;34247;50.064;19.970;2023-01-10T00:58:36;9.00;;;5.25;;
21084;SDS011;34247;50.064;19.970;2023-01-10T00:59:40;6.35;;;4.28;;
21084;SDS011;34247;50.064;19.970;2023-01-10T01:00:45;8.23;;;3.70;;
21084;SDS011;34247;50.064;19.970;2023-01-10T01:01:52;5.55;;;4.38;;
21084;SDS011;34247;50.064;19.970;2023-01-10T01:02:56;4.53;;;4.07;;
21084;SDS011;34247;50.064;19.970;2023-01-10T01:04:00;7.32;;;4.28;;
21084;SDS011;34247;50.064;19.970;2023-01-10T01:05:04;6.47;;;5.10;;
21084;SDS011;34247;50.064;19.970;2023-01-10T01:06:09;5.45;;;3.47;;
21084;SDS011;34247;50.064;19.970;2023-01-10T01:07:13;4.70;;;4.00;;
21084;SDS011;34247;50.064;19.970;2023-01-10T01:08:17;5.10;;;3.85;;
21084;SDS011;34247;50.064;19.970;2023-01-10T01:09:22;7.63;;;3.03;;
21084;SDS011;34247;50.064;19.970;2023-01-10T01:10:28;4.05;;;3.72;;
21084;SDS011;34247;50.064;19.970;2023-01-10T01:11:35;9.25;;;4.57;;
21084;SDS011;34247;50.064;19.970;2023-01-10T01:12:42;6.28;;;4.30;;
21084;SDS011;34247;50.064;19.970;2023-01-10T01:13:46;8.50;;;4.75;;
21084;SDS011;34247;50.064;19.970;2023-01-10T01:14:50;4.78;;;3.63;;
21084;SDS011;34247;50.064;19.970;2023-01-10T01:15:56;4.47;;;3.90;;
21084;SDS011;34247;50.064;19.970;2023-01-10T01:17:01;5.43;;;4.28;;
21084;SDS011;34247;50.064;19.970;2023-01-10T01:18:05;6.40;;;3.15;;
21084;SDS011;34247;50.064;19.970;2023-01-10T01:19:12;13.63;;;5.50;;
21084;SDS011;34247;50.064;19.970;2023-01-10T01:20:16;4.70;;;2.97;;
21084;SDS011;34247;50.064;19.970;2023-01-10T01:21:20;10.13;;;4.97;;
21084;SDS011;34247;50.064;19.970;2023-01-10T01:22:24;4.57;;;4.13;;
21084;SDS011;34247;50.064;19.970;2023-01-10T01:23:28;12.75;;;3.65;;
21084;SDS011;34247;50.064;19.970;2023-01-10T01:24:32;7.88;;;5.03;;
21084;SDS011;34247;50.064;19.970;2023-01-10T01:25:36;6.13;;;3.83;;
21084;SDS011;34247;50.064;19.970;2023-01-10T01:26:40;7.80;;;4.32;;
21084;SDS011;34247;50.064;19.970;2023-01-10T01:27:44;8.00;;;4.03;;
21084;SDS011;34247;50.064;19.970;2023-01-10T01:28:48;7.45;;;4.38;;
21084;SDS011;34247;50.064;19.970;2023-01-10T01:29:53;4.32;;;3.92;;
21084;SDS011;34247;50.064;19.970;2023-01-10T01:30:58;4.63;;;3.58;;
21084;SDS011;34247;50.064;19.970;2023-01-10T01:32:02;6.75;;;3.47;;
21084;SDS011;34247;50.064;19.970;2023-01-10T01:33:07;5.57;;;4.75;;
21084;SDS011;34247;50.064;19.970;2023-01-10T01:34:11;7.57;;;3.33;;
21084;SDS011;34247;50.064;19.970;2023-01-10T01:35:16;3.97;;;3.65;;
21084;SDS011;34247;50.064;19.970;2023-01-10T01:36:20;9.68;;;4.15;;
21084;SDS011;34247;50.064;19.970;2023-01-10T01:37:25;4.95;;;4.45;;
21084;SDS011;34247;50.064;19.970;2023-01-10T01:38:29;5.65;;;3.22;;
21084;SDS011;34247;50.064;19.970;2023-01-10T01:39:33;5.00;;;3.30;;
21084;SDS011;34247;50.064;19.970;2023-01-10T01:40:37;4.30;;;3.25;;
21084;SDS011;34247;50.064;19.970;2023-01-10T01:41:43;4.68;;;4.18;;
21084;SDS011;34247;50.064;19.970;2023-01-10T01:42:59;4.78;;;3.95;;
21084;SDS011;34247;50.064;19.970;2023-01-10T01:44:06;5.93;;;3.80;;
21084;SDS011;34247;50.064;19.970;2023-01-10T01:46:26;5.97;;;4.05;;
21084;SDS011;34247;50.064;19.970;2023-01-10T01:47:31;4.53;;;3.28;;
21084;SDS011;34247;50.064;19.970;2023-01-10T01:48:37;5.95;;;4.43;;
21084;SDS011;34247;50.064;19.970;2023-01-10T01:49:45;6.25;;;3.33;;
21084;SDS011;34247;50.064;19.970;2023-01-10T01:52:11;5.63;;;3.53;;
21084;SDS011;34247;50.064;19.970;2023-01-10T01:53:28;6.05;;;3.75;;
21084;SDS011;34247;50.064;19.970;2023-01-10T01:54:58;4.82;;;2.97;;
21084;SDS011;34247;50.064;19.970;2023-01-10T01:56:11;3.40;;;3.00;;
21084;SDS011;34247;50.064;19.970;2023-01-10T01:57:30;6.53;;;3.33;;
21084;SDS011;34247;50.064;19.970;2023-01-10T01:58:40;5.47;;;4.50;;
21084;SDS011;34247;50.064;19.970;2023-01-10T02:00:14;3.80;;;3.25;;
21084;SDS011;34247;50.064;19.970;2023-01-10T02:01:19;7.05;;;4.28;;
21084;SDS011;34247;50.064;19.970;2023-01-10T02:02:26;5.05;;;4.22;;
21084;SDS011;34247;50.064;19.970;2023-01-10T02:03:37;4.65;;;4.18;;
21084;SDS011;34247;50.064;19.970;2023-01-10T02:04:47;6.85;;;5.13;;
21084;SDS011;34247;50.064;19.970;2023-01-10T02:06:01;7.93;;;3.60;;
21084;SDS011;34247;50.064;19.970;2023-01-10T02:07:05;8.15;;;4.05;;
21084;SDS011;34247;50.064;19.970;2023-01-10T02:08:14;3.97;;;3.60;;
21084;SDS011;34247;50.064;19.970;2023-01-10T02:11:55;5.10;;;3.50;;
21084;SDS011;34247;50.064;19.970;2023-01-10T02:13:01;6.60;;;3.40;;
21084;SDS011;34247;50.064;19.970;2023-01-10T02:14:09;5.90;;;3.33;;
21084;SDS011;34247;50.064;19.970;2023-01-10T02:15:17;4.70;;;3.92;;
21084;SDS011;34247;50.064;19.970;2023-01-10T02:16:21;4.68;;;3.08;;
21084;SDS011;34247;50.064;19.970;2023-01-10T02:17:25;7.15;;;3.33;;
21084;SDS011;34247;50.064;19.970;2023-01-10T02:18:29;6.78;;;3.88;;
21084;SDS011;34247;50.064;19.970;2023-01-10T02:22:41;5.63;;;4.13;;
21084;SDS011;34247;50.064;19.970;2023-01-10T02:33:33;6.10;;;4.78;;
21084;SDS011;34247;50.064;19.970;2023-01-10T02:41:12;11.88;;;4.70;;
21084;SDS011;34247;50.064;19.970;2023-01-10T02:42:24;3.47;;;3.15;;
21084;SDS011;34247;50.064;19.970;2023-01-10T02:43:49;7.35;;;3.22;;
21084;SDS011;34247;50.064;19.970;2023-01-10T02:45:04;4.45;;;2.70;;
21084;SDS011;34247;50.064;19.970;2023-01-10T02:46:17;5.78;;;3.72;;
21084;SDS011;34247;50.064;19.970;2023-01-10T02:47:39;8.02;;;3.00;;
21084;SDS011;34247;50.064;19.970;2023-01-10T02:48:45;6.28;;;4.25;;
21084;SDS011;34247;50.064;19.970;2023-01-10T02:49:49;7.22;;;4.43;;
21084;SDS011;34247;50.064;19.970;2023-01-10T02:51:01;5.90;;;3.67;;
21084;SDS011;34247;50.064;19.970;2023-01-10T02:52:25;3.60;;;3.30;;
21084;SDS011;34247;50.064;19.970;2023-01-10T02:53:35;5.55;;;3.17;;
21084;SDS011;34247;50.064;19.970;2023-01-10T02:54:45;4.13;;;3.70;;
21084;SDS011;34247;50.064;19.970;2023-01-10T02:57:36;5.78;;;3.20;;
21084;SDS011;34247;50.064;19.970;2023-01-10T03:00:38;10.85;;;4.15;;
21084;SDS011;34247;50.064;19.970;2023-01-10T03:03:20;4.13;;;3.38;;
21084;SDS011;34247;50.064;19.970;2023-01-10T03:04:50;4.90;;;3.30;;
21084;SDS011;34247;50.064;19.970;2023-01-10T03:06:24;5.63;;;4.05;;
21084;SDS011;34247;50.064;19.970;2023-01-10T03:08:00;5.93;;;4.18;;
21084;SDS011;34247;50.064;19.970;2023-01-10T03:11:09;6.15;;;4.10;;
21084;SDS011;34247;50.064;19.970;2023-01-10T03:12:19;7.18;;;4.78;;
21084;SDS011;34247;50.064;19.970;2023-01-10T03:15:00;7.25;;;4.72;;
21084;SDS011;34247;50.064;19.970;2023-01-10T03:16:09;4.05;;;3.10;;
21084;SDS011;34247;50.064;19.970;2023-01-10T03:17:20;6.47;;;4.45;;
21084;SDS011;34247;50.064;19.970;2023-01-10T03:18:32;4.50;;;3.33;;
21084;SDS011;34247;50.064;19.970;2023-01-10T03:19:46;4.05;;;3.50;;
21084;SDS011;34247;50.064;19.970;2023-01-10T03:20:54;5.90;;;4.55;;
21084;SDS011;34247;50.064;19.970;2023-01-10T03:22:03;5.68;;;3.83;;
21084;SDS011;34247;50.064;19.970;2023-01-10T03:23:11;6.43;;;4.10;;
21084;SDS011;34247;50.064;19.970;2023-01-10T03:24:23;6.20;;;4.50;;
21084;SDS011;34247;50.064;19.970;2023-01-10T03:25:55;11.18;;;3.80;;
21084;SDS011;34247;50.064;19.970;2023-01-10T03:27:02;6.35;;;4.00;;
21084;SDS011;34247;50.064;19.970;2023-01-10T03:28:22;5.57;;;3.53;;
21084;SDS011;34247;50.064;19.970;2023-01-10T03:30:02;5.03;;;4.03;;
21084;SDS011;34247;50.064;19.970;2023-01-10T03:31:38;11.30;;;4.65;;
21084;SDS011;34247;50.064;19.970;2023-01-10T03:33:01;4.72;;;3.50;;
21084;SDS011;34247;50.064;19.970;2023-01-10T03:34:07;6.95;;;3.45;;
21084;SDS011;34247;50.064;19.970;2023-01-10T03:35:12;4.75;;;4.15;;
21084;SDS011;34247;50.064;19.970;2023-01-10T03:37:55;5.70;;;3.80;;
21084;SDS011;34247;50.064;19.970;2023-01-10T03:42:21;4.97;;;3.92;;
21084;SDS011;34247;50.064;19.970;2023-01-10T03:44:14;5.18;;;3.58;;
21084;SDS011;34247;50.064;19.970;2023-01-10T03:45:55;9.38;;;3.47;;
21084;SDS011;34247;50.064;19.970;2023-01-10T03:47:49;4.07;;;3.33;;
21084;SDS011;34247;50.064;19.970;2023-01-10T03:48:56;5.38;;;3.38;;
21084;SDS011;34247;50.064;19.970;2023-01-10T03:51:15;7.65;;;3.78;;
21084;SDS011;34247;50.064;19.970;2023-01-10T03:52:22;7.20;;;3.97;;
21084;SDS011;34247;50.064;19.970;2023-01-10T03:53:29;4.72;;;3.50;;
21084;SDS011;34247;50.064;19.970;2023-01-10T03:54:35;4.60;;;3.67;;
21084;SDS011;34247;50.064;19.970;2023-01-10T03:55:41;4.00;;;3.63;;
21084;SDS011;34247;50.064;19.970;2023-01-10T03:56:48;8.50;;;3.67;;
21084;SDS011;34247;50.064;19.970;2023-01-10T03:57:53;6.93;;;4.25;;
21084;SDS011;34247;50.064;19.970;2023-01-10T03:58:58;6.55;;;3.08;;
21084;SDS011;34247;50.064;19.970;2023-01-10T04:00:03;7.45;;;4.18;;
21084;SDS011;34247;50.064;19.970;2023-01-10T04:01:08;11.73;;;4.40;;
21084;SDS011;34247;50.064;19.970;2023-01-10T04:02:12;5.10;;;4.25;;
21084;SDS011;34247;50.064;19.970;2023-01-10T04:03:17;5.55;;;3.40;;
21084;SDS011;34247;50.064;19.970;2023-01-10T04:04:22;3.42;;;3.13;;
21084;SDS011;34247;50.064;19.970;2023-01-10T04:05:26;5.18;;;3.38;;
21084;SDS011;34247;50.064;19.970;2023-01-10T04:06:30;3.55;;;3.25;;
21084;SDS011;34247;50.064;19.970;2023-01-10T04:07:34;13.13;;;3.75;;
21084;SDS011;34247;50.064;19.970;2023-01-10T04:08:39;6.55;;;3.83;;
21084;SDS011;34247;50.064;19.970;2023-01-10T04:09:42;5.20;;;3.78;;
21084;SDS011;34247;50.064;19.970;2023-01-10T04:10:49;5.55;;;4.05;;
21084;SDS011;34247;50.064;19.970;2023-01-10T04:11:53;5.10;;;3.63;;
21084;SDS011;34247;50.064;19.970;2023-01-10T04:12:59;3.72;;;3.38;;
21084;SDS011;34247;50.064;19.970;2023-01-10T04:14:04;3.65;;;3.35;;
21084;SDS011;34247;50.064;19.970;2023-01-10T04:15:12;5.38;;;3.17;;
21084;SDS011;34247;50.064;19.970;2023-01-10T04:16:17;3.97;;;3.53;;
21084;SDS011;34247;50.064;19.970;2023-01-10T04:17:22;3.97;;;2.97;;
21084;SDS011;34247;50.064;19.970;2023-01-10T04:18:27;4.57;;;3.10;;
21084;SDS011;34247;50.064;19.970;2023-01-10T04:19:32;4.20;;;2.60;;
21084;SDS011;34247;50.064;19.970;2023-01-10T04:20:36;2.80;;;2.50;;
21084;SDS011;34247;50.064;19.970;2023-01-10T04:21:41;8.15;;;3.72;;
21084;SDS011;34247;50.064;19.970;2023-01-10T04:22:45;6.82;;;3.67;;
21084;SDS011;34247;50.064;19.970;2023-01-10T04:23:52;2.38;;;2.17;;
21084;SDS011;34247;50.064;19.970;2023-01-10T04:24:56;5.07;;;3.35;;
21084;SDS011;34247;50.064;19.970;2023-01-10T04:26:00;3.53;;;3.22;;
21084;SDS011;34247;50.064;19.970;2023-01-10T04:27:04;2.95;;;2.72;;
21084;SDS011;34247;50.064;19.970;2023-01-10T04:28:08;7.30;;;2.70;;
21084;SDS011;34247;50.064;19.970;2023-01-10T04:29:12;3.22;;;2.97;;
21084;SDS011;34247;50.064;19.970;2023-01-10T04:30:17;2.85;;;2.58;;
21084;SDS011;34247;50.064;19.970;2023-01-10T04:31:21;3.40;;;2.90;;
21084;SDS011;34247;50.064;19.970;2023-01-10T04:32:26;7.05;;;2.78;;
21084;SDS011;34247;50.064;19.970;2023-01-10T04:33:30;6.13;;;3.13;;
21084;SDS011;34247;50.064;19.970;2023-01-10T04:34:34;3.88;;;3.42;;
21084;SDS011;34247;50.064;19.970;2023-01-10T04:35:39;3.78;;;2.92;;
21084;SDS011;34247;50.064;19.970;2023-01-10T04:36:46;4.80;;;2.40;;
21084;SDS011;34247;50.064;19.970;2023-01-10T04:37:52;11.35;;;2.45;;
21084;SDS011;34247;50.064;19.970;2023-01-10T04:38:56;5.25;;;2.47;;
21084;SDS011;34247;50.064;19.970;2023-01-10T04:40:00;3.95;;;2.63;;
21084;SDS011;34247;50.064;19.970;2023-01-10T04:41:04;2.55;;;2.40;;
21084;SDS011;34247;50.064;19.970;2023-01-10T04:42:08;5.18;;;3.35;;
21084;SDS011;34247;50.064;19.970;2023-01-10T04:43:13;7.38;;;3.05;;
21084;SDS011;34247;50.064;19.970;2023-01-10T04:44:17;3.60;;;3.00;;
21084;SDS011;34247;50.064;19.970;2023-01-10T04:45:23;4.63;;;2.65;;
21084;SDS011;34247;50.064;19.970;2023-01-10T04:46:27;2.78;;;2.35;;
21084;SDS011;34247;50.064;19.970;2023-01-10T04:47:31;4.30;;;3.80;;
21084;SDS011;34247;50.064;19.970;2023-01-10T04:48:35;3.88;;;3.50;;
21084;SDS011;34247;50.064;19.970;2023-01-10T04:49:39;6.22;;;3.53;;
21084;SDS011;34247;50.064;19.970;2023-01-10T04:50:52;2.63;;;2.40;;
21084;SDS011;34247;50.064;19.970;2023-01-10T04:51:56;3.60;;;3.28;;
21084;SDS011;34247;50.064;19.970;2023-01-10T04:53:00;3.67;;;2.83;;
21084;SDS011;34247;50.064;19.970;2023-01-10T04:54:07;4.68;;;2.97;;
21084;SDS011;34247;50.064;19.970;2023-01-10T04:55:11;3.55;;;3.17;;
21084;SDS011;34247;50.064;19.970;2023-01-10T04:56:16;3.80;;;3.38;;
21084;SDS011;34247;50.064;19.970;2023-01-10T04:57:23;2.53;;;2.00;;
21084;SDS011;34247;50.064;19.970;2023-01-10T04:58:27;3.58;;;3.20;;
21084;SDS011;34247;50.064;19.970;2023-01-10T04:59:31;3.17;;;2.80;;
21084;SDS011;34247;50.064;19.970;2023-01-10T05:00:37;4.05;;;2.13;;
21084;SDS011;34247;50.064;19.970;2023-01-10T05:01:42;4.68;;;3.05;;
21084;SDS011;34247;50.064;19.970;2023-01-10T05:02:46;2.33;;;2.22;;
21084;SDS011;34247;50.064;19.970;2023-01-10T05:03:51;3.42;;;2.28;;
21084;SDS011;34247;50.064;19.970;2023-01-10T05:04:57;10.63;;;2.70;;
21084;SDS011;34247;50.064;19.970;2023-01-10T05:06:01;6.15;;;2.90;;
21084;SDS011;34247;50.064;19.970;2023-01-10T05:07:07;2.47;;;2.28;;
21084;SDS011;34247;50.064;19.970;2023-01-10T05:08:10;3.13;;;2.65;;
21084;SDS011;34247;50.064;19.970;2023-01-10T05:09:15;2.95;;;2.67;;
21084;SDS011;34247;50.064;19.970;2023-01-10T05:10:19;5.75;;;2.72;;
21084;SDS011;34247;50.064;19.970;2023-01-10T05:11:23;5.03;;;2.95;;
21084;SDS011;34247;50.064;19.970;2023-01-10T05:12:27;3.72;;;2.13;;
21084;SDS011;34247;50.064;19.970;2023-01-10T05:13:32;2.55;;;2.40;;
21084;SDS011;34247;50.064;19.970;2023-01-10T05:14:36;2.42;;;2.33;;
21084;SDS011;34247;50.064;19.970;2023-01-10T05:15:41;3.55;;;2.55;;
21084;SDS011;34247;50.064;19.970;2023-01-10T05:16:45;2.65;;;2.38;;
21084;SDS011;34247;50.064;19.970;2023-01-10T05:17:49;3.63;;;2.42;;
21084;SDS011;34247;50.064;19.970;2023-01-10T05:18:59;3.10;;;2.30;;
21084;SDS011;34247;50.064;19.970;2023-01-10T05:20:03;2.88;;;1.92;;
21084;SDS011;34247;50.064;19.970;2023-01-10T05:21:12;2.20;;;2.00;;
21084;SDS011;34247;50.064;19.970;2023-01-10T05:22:17;2.08;;;1.98;;
21084;SDS011;34247;50.064;19.970;2023-01-10T05:23:20;2.42;;;2.30;;
21084;SDS011;34247;50.064;19.970;2023-01-10T05:24:24;2.92;;;2.60;;
21084;SDS011;34247;50.064;19.970;2023-01-10T05:25:28;2.20;;;2.10;;
21084;SDS011;34247;50.064;19.970;2023-01-10T05:26:32;4.40;;;2.20;;
21084;SDS011;34247;50.064;19.970;2023-01-10T05:27:35;3.08;;;2.35;;
21084;SDS011;34247;50.064;19.970;2023-01-10T05:28:45;2.88;;;2.67;;
21084;SDS011;34247;50.064;19.970;2023-01-10T05:29:49;2.75;;;2.55;;
21084;SDS011;34247;50.064;19.970;2023-01-10T05:30:53;2.75;;;2.40;;
21084;SDS011;34247;50.064;19.970;2023-01-10T05:31:57;2.55;;;2.35;;
21084;SDS011;34247;50.064;19.970;2023-01-10T05:33:04;2.38;;;2.17;;
21084;SDS011;34247;50.064;19.970;2023-01-10T05:34:10;3.83;;;2.92;;
21084;SDS011;34247;50.064;19.970;2023-01-10T05:35:15;3.20;;;2.90;;
21084;SDS011;34247;50.064;19.970;2023-01-10T05:36:20;2.80;;;2.60;;
21084;SDS011;34247;50.064;19.970;2023-01-10T05:37:24;3.10;;;2.30;;
21084;SDS011;34247;50.064;19.970;2023-01-10T05:38:29;3.42;;;2.38;;
21084;SDS011;34247;50.064;19.970;2023-01-10T05:39:34;2.67;;;2.47;;
21084;SDS011;34247;50.064;19.970;2023-01-10T05:40:38;2.15;;;2.05;;
21084;SDS011;34247;50.064;19.970;2023-01-10T05:41:42;2.17;;;2.08;;
21084;SDS011;34247;50.064;19.970;2023-01-10T05:42:46;3.65;;;2.72;;
21084;SDS011;34247;50.064;19.970;2023-01-10T05:43:51;3.08;;;2.88;;
21084;SDS011;34247;50.064;19.970;2023-01-10T05:44:55;3.25;;;2.95;;
21084;SDS011;34247;50.064;19.970;2023-01-10T05:45:59;4.10;;;2.85;;
21084;SDS011;34247;50.064;19.970;2023-01-10T05:47:03;2.33;;;2.22;;
21084;SDS011;34247;50.064;19.970;2023-01-10T05:48:08;3.10;;;2.40;;
21084;SDS011;34247;50.064;19.970;2023-01-10T05:49:12;4.75;;;2.45;;
21084;SDS011;34247;50.064;19.970;2023-01-10T05:50:17;2.22;;;2.03;;
21084;SDS011;34247;50.064;19.970;2023-01-10T05:51:21;5.45;;;2.28;;
21084;SDS011;34247;50.064;19.970;2023-01-10T05:52:26;4.72;;;2.25;;
21084;SDS011;34247;50.064;19.970;2023-01-10T05:53:30;3.83;;;2.10;;
21084;SDS011;34247;50.064;19.970;2023-01-10T05:54:40;2.20;;;2.10;;
21084;SDS011;34247;50.064;19.970;2023-01-10T05:55:54;3.10;;;2.42;;
21084;SDS011;34247;50.064;19.970;2023-01-10T05:57:01;2.13;;;1.92;;
21084;SDS011;34247;50.064;19.970;2023-01-10T05:58:06;2.15;;;2.03;;
21084;SDS011;34247;50.064;19.970;2023-01-10T05:59:13;5.95;;;3.25;;
21084;SDS011;34247;50.064;19.970;2023-01-10T06:00:29;2.30;;;2.20;;
21084;SDS011;34247;50.064;19.970;2023-01-10T06:01:34;2.75;;;2.55;;
21084;SDS011;34247;50.064;19.970;2023-01-10T06:02:38;3.85;;;2.83;;
21084;SDS011;34247;50.064;19.970;2023-01-10T06:03:43;2.85;;;2.67;;
21084;SDS011;34247;50.064;19.970;2023-01-10T06:04:50;4.78;;;2.28;;
21084;SDS011;34247;50.064;19.970;2023-01-10T06:05:57;3.88;;;3.25;;
21084;SDS011;34247;50.064;19.970;2023-01-10T06:07:01;3.38;;;2.63;;
21084;SDS011;34247;50.064;19.970;2023-01-10T06:08:06;2.50;;;2.30;;
21084;SDS011;34247;50.064;19.970;2023-01-10T06:09:10;3.80;;;2.60;;
21084;SDS011;34247;50.064;19.970;2023-01-10T06:10:15;2.67;;;2.47;;
21084;SDS011;34247;50.064;19.970;2023-01-10T06:11:21;4.72;;;3.22;;
21084;SDS011;34247;50.064;19.970;2023-01-10T06:12:31;4.43;;;2.22;;
21084;SDS011;34247;50.064;19.970;2023-01-10T06:13:34;3.10;;;2.80;;
21084;SDS011;34247;50.064;19.970;2023-01-10T06:14:38;3.00;;;2.65;;
21084;SDS011;34247;50.064;19.970;2023-01-10T06:15:42;3.55;;;2.80;;
21084;SDS011;34247;50.064;19.970;2023-01-10T06:16:47;2.15;;;2.05;;
21084;SDS011;34247;50.064;19.970;2023-01-10T06:17:54;4.30;;;2.50;;
21084;SDS011;34247;50.064;19.970;2023-01-10T06:18:59;4.30;;;3.08;;
21084;SDS011;34247;50.064;19.970;2023-01-10T06:20:03;3.60;;;3.08;;
21084;SDS011;34247;50.064;19.970;2023-01-10T06:21:07;3.58;;;2.53;;
21084;SDS011;34247;50.064;19.970;2023-01-10T06:22:11;3.67;;;2.22;;
21084;SDS011;34247;50.064;19.970;2023-01-10T06:23:16;3.22;;;2.25;;
21084;SDS011;34247;50.064;19.970;2023-01-10T06:24:20;2.58;;;1.98;;
21084;SDS011;34247;50.064;19.970;2023-01-10T06:25:25;2.53;;;2.33;;
21084;SDS011;34247;50.064;19.970;2023-01-10T06:26:32;2.80;;;2.60;;
21084;SDS011;34247;50.064;19.970;2023-01-10T06:27:40;4.38;;;2.75;;
21084;SDS011;34247;50.064;19.970;2023-01-10T06:28:45;2.08;;;1.98;;
21084;SDS011;34247;50.064;19.970;2023-01-10T06:29:49;3.03;;;2.38;;
21084;SDS011;34247;50.064;19.970;2023-01-10T06:30:57;2.08;;;1.92;;
21084;SDS011;34247;50.064;19.970;2023-01-10T06:32:09;2.22;;;2.13;;
21084;SDS011;34247;50.064;19.970;2023-01-10T06:33:14;2.55;;;2.35;;
21084;SDS011;34247;50.064;19.970;2023-01-10T06:34:27;2.85;;;2.65;;
21084;SDS011;34247;50.064;19.970;2023-01-10T06:35:39;2.42;;;2.05;;
21084;SDS011;34247;50.064;19.970;2023-01-10T06:36:45;5.18;;;1.98;;
21084;SDS011;34247;50.064;19.970;2023-01-10T06:37:53;3.08;;;1.90;;
21084;SDS011;34247;50.064;19.970;2023-01-10T06:39:01;2.10;;;2.00;;
21084;SDS011;34247;50.064;19.970;2023-01-10T06:40:08;2.03;;;1.92;;
21084;SDS011;34247;50.064;19.970;2023-01-10T06:41:18;5.13;;;3.30;;
21084;SDS011;34247;50.064;19.970;2023-01-10T06:42:24;2.53;;;2.33;;
21084;SDS011;34247;50.064;19.970;2023-01-10T06:43:31;2.55;;;2.22;;
21084;SDS011;34247;50.064;19.970;2023-01-10T06:44:36;2.08;;;1.80;;
21084;SDS011;34247;50.064;19.970;2023-01-10T06:45:42;3.20;;;2.30;;
21084;SDS011;34247;50.064;19.970;2023-01-10T06:46:49;2.10;;;2.00;;
21084;SDS011;34247;50.064;19.970;2023-01-10T06:47:57;1.70;;;1.60;;
21084;SDS011;34247;50.064;19.970;2023-01-10T06:49:05;2.55;;;2.15;;
21084;SDS011;34247;50.064;19.970;2023-01-10T06:50:13;2.25;;;2.15;;
21084;SDS011;34247;50.064;19.970;2023-01-10T06:51:17;2.40;;;2.20;;
21084;SDS011;34247;50.064;19.970;2023-01-10T06:52:24;2.00;;;1.90;;
21084;SDS011;34247;50.064;19.970;2023-01-10T06:53:31;2.75;;;2.60;;
21084;SDS011;34247;50.064;19.970;2023-01-10T06:54:39;2.72;;;2.55;;
21084;SDS011;34247;50.064;19.970;2023-01-10T06:55:48;2.00;;;1.90;;
21084;SDS011;34247;50.064;19.970;2023-01-10T06:56:56;3.17;;;2.60;;
21084;SDS011;34247;50.064;19.970;2023-01-10T06:58:05;2.92;;;2.50;;
21084;SDS011;34247;50.064;19.970;2023-01-10T06:59:12;2.95;;;2.50;;
21084;SDS011;34247;50.064;19.970;2023-01-10T07:00:21;3.50;;;2.70;;
21084;SDS011;34247;50.064;19.970;2023-01-10T07:01:29;2.40;;;2.20;;
21084;SDS011;34247;50.064;19.970;2023-01-10T07:02:36;2.38;;;2.17;;
21084;SDS011;34247;50.064;19.970;2023-01-10T07:03:43;2.25;;;2.15;;
21084;SDS011;34247;50.064;19.970;2023-01-10T07:04:50;1.98;;;1.88;;
21084;SDS011;34247;50.064;19.970;2023-01-10T07:06:01;2.85;;;2.65;;
21084;SDS011;34247;50.064;19.970;2023-01-10T07:07:07;2.17;;;1.98;;
21084;SDS011;34247;50.064;19.970;2023-01-10T07:08:12;3.17;;;2.38;;
21084;SDS011;34247;50.064;19.970;2023-01-10T07:09:21;2.20;;;2.00;;
21084;SDS011;34247;50.064;19.970;2023-01-10T07:10:28;2.67;;;2.42;;
21084;SDS011;34247;50.064;19.970;2023-01-10T07:11:36;1.90;;;1.80;;
21084;SDS011;34247;50.064;19.970;2023-01-10T07:12:42;2.25;;;2.08;;
21084;SDS011;34247;50.064;19.970;2023-01-10T07:13:48;2.05;;;1.95;;
21084;SDS011;34247;50.064;19.970;2023-01-10T07:14:58;8.60;;;2.55;;
21084;SDS011;34247;50.064;19.970;2023-01-10T07:16:03;1.90;;;1.80;;
21084;SDS011;34247;50.064;19.970;2023-01-10T07:17:19;2.13;;;2.03;;
21084;SDS011;34247;50.064;19.970;2023-01-10T07:18:25;2.65;;;2.33;;
21084;SDS011;34247;50.064;19.970;2023-01-10T07:19:39;16.30;;;1.75;;